sensor_id;sensor_type;location;lat;lon;timestamp;pressure;altitude;pressure_sealevel;temperature;humidity
73171;BME280;61381;50.118;19.962;2023-08-07T00:00:09;97243.31;;;18.19;100.00
73171;BME280;61381;50.118;19.962;2023-08-07T00:05:30;97232.22;;;18.01;100.00
73171;BME280;61381;50.118;19.962;2023-08-07T00:10:31;97226.44;;;18.03;100.00
73171;BME280;61381;50.118;19.962;2023-08-07T00:15:33;97217.25;;;18.11;100.00
73171;BME280;61381;50.118;19.962;2023-08-07T00:20:34;97219.03;;;17.99;100.00
73171;BME280;61381;50.118;19.962;2023-08-07T00:25:35;97216.44;;;17.83;100.00
73171;BME280;61381;50.118;19.962;2023-08-07T00:30:38;97216.16;;;18.15;100.00
73171;BME280;61381;50.118;19.962;2023-08-07T00:35:38;97209.97;;;18.15;100.00
73171;BME280;61381;50.118;19.962;2023-08-07T00:40:40;97211.22;;;18.21;100.00
73171;BME280;61381;50.118;19.962;2023-08-07T00:45:47;97216.72;;;18.02;100.00
73171;BME280;61381;50.118;19.962;2023-08-07T00:50:48;97205.41;;;17.96;100.00
73171;BME280;61381;50.118;19.962;2023-08-07T00:55:49;97202.84;;;18.07;100.00
73171;BME280;61381;50.118;19.962;2023-08-07T01:00:52;97198.13;;;18.00;100.00
73171;BME280;61381;50.118;19.962;2023-08-07T01:05:53;97200.69;;;17.89;100.00
73171;BME280;61381;50.118;19.962;2023-08-07T01:11:07;97200.25;;;17.87;100.00
73171;BME280;61381;50.118;19.962;2023-08-07T01:16:17;97211.16;;;17.91;100.00
73171;BME280;61381;50.118;19.962;2023-08-07T01:21:19;97208.66;;;18.05;100.00
73171;BME280;61381;50.118;19.962;2023-08-07T01:26:21;97210.22;;;18.06;100.00
73171;BME280;61381;50.118;19.962;2023-08-07T01:31:24;97206.03;;;17.86;100.00
73171;BME280;61381;50.118;19.962;2023-08-07T01:36:27;97208.81;;;17.89;100.00
73171;BME280;61381;50.118;19.962;2023-08-07T01:41:30;97209.66;;;17.93;100.00
73171;BME280;61381;50.118;19.962;2023-08-07T01:46:31;97214.63;;;17.91;100.00
73171;BME280;61381;50.118;19.962;2023-08-07T01:51:32;97204.41;;;18.04;100.00
73171;BME280;61381;50.118;19.962;2023-08-07T01:56:35;97206.94;;;17.93;100.00
73171;BME280;61381;50.118;19.962;2023-08-07T02:01:35;97206.88;;;17.67;100.00
73171;BME280;61381;50.118;19.962;2023-08-07T02:06:36;97210.63;;;18.08;100.00
73171;BME280;61381;50.118;19.962;2023-08-07T02:11:38;97204.84;;;17.60;100.00
73171;BME280;61381;50.118;19.962;2023-08-07T02:16:39;97211.38;;;17.82;100.00
73171;BME280;61381;50.118;19.962;2023-08-07T02:21:40;97215.53;;;17.76;100.00
73171;BME280;61381;50.118;19.962;2023-08-07T02:26:43;97224.16;;;17.81;100.00
73171;BME280;61381;50.118;19.962;2023-08-07T02:31:43;97222.94;;;18.02;100.00
73171;BME280;61381;50.118;19.962;2023-08-07T02:36:44;97213.25;;;17.78;100.00
73171;BME280;61381;50.118;19.962;2023-08-07T02:41:46;97215.97;;;17.55;100.00
73171;BME280;61381;50.118;19.962;2023-08-07T02:46:47;97226.31;;;17.72;100.00
73171;BME280;61381;50.118;19.962;2023-08-07T02:51:48;97226.38;;;17.76;100.00
73171;BME280;61381;50.118;19.962;2023-08-07T02:56:50;97219.28;;;17.91;100.00
73171;BME280;61381;50.118;19.962;2023-08-07T03:01:51;97218.44;;;17.63;100.00
73171;BME280;61381;50.118;19.962;2023-08-07T03:06:52;97230.66;;;17.77;100.00
73171;BME280;61381;50.118;19.962;2023-08-07T03:11:54;97228.13;;;17.64;100.00
73171;BME280;61381;50.118;19.962;2023-08-07T03:16:55;97229.84;;;17.76;100.00
73171;BME280;61381;50.118;19.962;2023-08-07T03:21:56;97231.25;;;17.43;100.00
73171;BME280;61381;50.118;19.962;2023-08-07T03:26:58;97243.13;;;17.58;100.00
73171;BME280;61381;50.118;19.962;2023-08-07T03:31:59;97243.47;;;17.80;100.00
73171;BME280;61381;50.118;19.962;2023-08-07T03:37:00;97235.66;;;17.52;100.00
73171;BME280;61381;50.118;19.962;2023-08-07T03:42:03;97235.94;;;17.70;100.00
73171;BME280;61381;50.118;19.962;2023-08-07T03:47:04;97250.91;;;17.60;100.00
73171;BME280;61381;50.118;19.962;2023-08-07T03:52:06;97253.00;;;17.93;100.00
73171;BME280;61381;50.118;19.962;2023-08-07T03:57:08;97259.78;;;18.07;100.00
73171;BME280;61381;50.118;19.962;2023-08-07T04:02:09;97261.50;;;17.92;100.00
73171;BME280;61381;50.118;19.962;2023-08-07T04:07:10;97262.56;;;18.10;100.00
73171;BME280;61381;50.118;19.962;2023-08-07T04:12:12;97272.09;;;18.27;100.00
73171;BME280;61381;50.118;19.962;2023-08-07T04:17:13;97277.44;;;17.97;100.00
73171;BME280;61381;50.118;19.962;2023-08-07T04:22:14;97285.19;;;18.48;100.00
73171;BME280;61381;50.118;19.962;2023-08-07T04:27:16;97280.03;;;18.40;100.00
73171;BME280;61381;50.118;19.962;2023-08-07T04:32:17;97280.78;;;18.67;100.00
73171;BME280;61381;50.118;19.962;2023-08-07T04:37:18;97275.75;;;18.69;100.00
73171;BME280;61381;50.118;19.962;2023-08-07T04:42:20;97271.56;;;18.75;100.00
73171;BME280;61381;50.118;19.962;2023-08-07T04:47:21;97278.97;;;18.78;100.00
73171;BME280;61381;50.118;19.962;2023-08-07T04:52:22;97280.81;;;19.35;100.00
73171;BME280;61381;50.118;19.962;2023-08-07T04:57:24;97279.50;;;19.21;100.00
73171;BME280;61381;50.118;19.962;2023-08-07T05:02:25;97285.44;;;18.97;100.00
73171;BME280;61381;50.118;19.962;2023-08-07T05:07:26;97286.53;;;18.92;100.00
73171;BME280;61381;50.118;19.962;2023-08-07T05:12:29;97290.91;;;19.00;100.00
73171;BME280;61381;50.118;19.962;2023-08-07T05:17:30;97284.69;;;19.00;100.00
73171;BME280;61381;50.118;19.962;2023-08-07T05:22:31;97297.41;;;18.92;100.00
73171;BME280;61381;50.118;19.962;2023-08-07T05:27:33;97300.91;;;18.66;100.00
73171;BME280;61381;50.118;19.962;2023-08-07T05:32:34;97301.22;;;18.87;100.00
73171;BME280;61381;50.118;19.962;2023-08-07T05:37:35;97311.50;;;19.05;100.00
73171;BME280;61381;50.118;19.962;2023-08-07T05:42:37;97312.56;;;18.97;100.00
73171;BME280;61381;50.118;19.962;2023-08-07T05:47:38;97319.63;;;19.01;100.00
73171;BME280;61381;50.118;19.962;2023-08-07T05:52:39;97331.91;;;19.22;100.00
73171;BME280;61381;50.118;19.962;2023-08-07T05:57:41;97333.75;;;19.14;100.00
73171;BME280;61381;50.118;19.962;2023-08-07T06:02:42;97329.22;;;18.95;100.00
73171;BME280;61381;50.118;19.962;2023-08-07T06:07:43;97344.88;;;19.05;100.00
73171;BME280;61381;50.118;19.962;2023-08-07T06:12:45;97346.59;;;18.87;100.00
73171;BME280;61381;50.118;19.962;2023-08-07T06:17:46;97353.84;;;18.83;100.00
73171;BME280;61381;50.118;19.962;2023-08-07T06:22:47;97356.00;;;18.97;100.00
73171;BME280;61381;50.118;19.962;2023-08-07T06:27:50;97360.22;;;19.24;100.00
73171;BME280;61381;50.118;19.962;2023-08-07T06:32:51;97360.06;;;18.83;100.00
73171;BME280;61381;50.118;19.962;2023-08-07T06:37:52;97360.84;;;18.84;100.00
73171;BME280;61381;50.118;19.962;2023-08-07T06:42:54;97361.69;;;18.61;100.00
73171;BME280;61381;50.118;19.962;2023-08-07T06:47:55;97364.31;;;18.31;100.00
73171;BME280;61381;50.118;19.962;2023-08-07T06:52:55;97365.53;;;18.60;100.00
73171;BME280;61381;50.118;19.962;2023-08-07T06:57:58;97365.44;;;17.83;100.00
73171;BME280;61381;50.118;19.962;2023-08-07T07:02:59;97372.34;;;18.24;100.00
73171;BME280;61381;50.118;19.962;2023-08-07T07:08:00;97377.91;;;17.88;100.00
73171;BME280;61381;50.118;19.962;2023-08-07T07:13:02;97386.50;;;18.36;100.00
73171;BME280;61381;50.118;19.962;2023-08-07T07:18:03;97386.56;;;18.40;100.00
73171;BME280;61381;50.118;19.962;2023-08-07T07:23:05;97386.75;;;18.05;100.00
73171;BME280;61381;50.118;19.962;2023-08-07T07:28:07;97383.22;;;18.50;100.00
73171;BME280;61381;50.118;19.962;2023-08-07T07:33:08;97392.09;;;18.74;100.00
73171;BME280;61381;50.118;19.962;2023-08-07T07:38:09;97402.53;;;19.25;100.00
73171;BME280;61381;50.118;19.962;2023-08-07T07:43:12;97402.00;;;19.77;99.35
73171;BME280;61381;50.118;19.962;2023-08-07T07:48:12;97403.78;;;19.66;97.71
73171;BME280;61381;50.118;19.962;2023-08-07T07:53:13;97404.63;;;19.39;95.91
73171;BME280;61381;50.118;19.962;2023-08-07T07:58:15;97422.25;;;19.83;93.35
73171;BME280;61381;50.118;19.962;2023-08-07T08:03:16;97411.88;;;19.28;93.86
73171;BME280;61381;50.118;19.962;2023-08-07T08:08:17;97412.84;;;18.86;96.00
73171;BME280;61381;50.118;19.962;2023-08-07T08:13:20;97423.25;;;19.07;96.04
73171;BME280;61381;50.118;19.962;2023-08-07T08:18:21;97430.06;;;19.24;95.95
73171;BME280;61381;50.118;19.962;2023-08-07T08:23:22;97431.50;;;19.14;94.68
73171;BME280;61381;50.118;19.962;2023-08-07T08:28:24;97436.22;;;19.21;94.85
73171;BME280;61381;50.118;19.962;2023-08-07T08:33:25;97436.25;;;19.55;93.66
73171;BME280;61381;50.118;19.962;2023-08-07T08:38:25;97443.81;;;19.72;92.63
73171;BME280;61381;50.118;19.962;2023-08-07T08:43:29;97436.22;;;19.21;93.28
73171;BME280;61381;50.118;19.962;2023-08-07T08:48:35;97446.66;;;19.49;91.32
73171;BME280;61381;50.118;19.962;2023-08-07T08:53:39;97452.03;;;19.76;90.46
73171;BME280;61381;50.118;19.962;2023-08-07T08:58:41;97448.09;;;20.45;88.98
73171;BME280;61381;50.118;19.962;2023-08-07T09:03:43;97447.56;;;20.28;88.43
73171;BME280;61381;50.118;19.962;2023-08-07T09:08:45;97457.06;;;20.49;88.19
73171;BME280;61381;50.118;19.962;2023-08-07T09:13:48;97455.69;;;19.87;89.57
73171;BME280;61381;50.118;19.962;2023-08-07T09:18:49;97463.44;;;21.19;86.82
73171;BME280;61381;50.118;19.962;2023-08-07T09:23:50;97467.38;;;22.28;81.59
73171;BME280;61381;50.118;19.962;2023-08-07T09:28:53;97474.47;;;22.43;79.32
73171;BME280;61381;50.118;19.962;2023-08-07T09:33:53;97481.06;;;21.40;83.54
73171;BME280;61381;50.118;19.962;2023-08-07T09:38:54;97472.06;;;20.73;86.40
73171;BME280;61381;50.118;19.962;2023-08-07T09:43:57;97472.59;;;21.56;82.33
73171;BME280;61381;50.118;19.962;2023-08-07T09:48:58;97474.72;;;21.95;82.05
73171;BME280;61381;50.118;19.962;2023-08-07T09:53:59;97483.28;;;21.94;82.92
73171;BME280;61381;50.118;19.962;2023-08-07T09:59:01;97479.03;;;22.14;82.65
73171;BME280;61381;50.118;19.962;2023-08-07T10:04:02;97469.78;;;22.73;81.77
73171;BME280;61381;50.118;19.962;2023-08-07T10:09:03;97485.75;;;22.49;89.92
73171;BME280;61381;50.118;19.962;2023-08-07T10:14:05;97493.97;;;22.67;87.47
73171;BME280;61381;50.118;19.962;2023-08-07T10:19:07;97486.06;;;22.15;83.79
73171;BME280;61381;50.118;19.962;2023-08-07T10:24:09;97492.41;;;23.02;80.26
73171;BME280;61381;50.118;19.962;2023-08-07T10:29:13;97499.78;;;22.48;78.59
73171;BME280;61381;50.118;19.962;2023-08-07T10:34:15;97495.13;;;22.62;79.31
73171;BME280;61381;50.118;19.962;2023-08-07T10:39:16;97485.22;;;21.93;80.55
73171;BME280;61381;50.118;19.962;2023-08-07T10:44:19;97484.22;;;22.70;79.46
73171;BME280;61381;50.118;19.962;2023-08-07T10:49:34;97489.28;;;22.42;78.77
73171;BME280;61381;50.118;19.962;2023-08-07T10:54:39;97480.59;;;22.08;78.29
73171;BME280;61381;50.118;19.962;2023-08-07T10:59:48;97479.88;;;21.34;83.92
73171;BME280;61381;50.118;19.962;2023-08-07T11:04:50;97484.94;;;21.32;83.51
73171;BME280;61381;50.118;19.962;2023-08-07T11:09:52;97502.50;;;22.37;79.68
73171;BME280;61381;50.118;19.962;2023-08-07T11:14:55;97487.09;;;21.71;81.23
73171;BME280;61381;50.118;19.962;2023-08-07T11:19:56;97497.50;;;22.82;79.17
73171;BME280;61381;50.118;19.962;2023-08-07T11:24:57;97514.66;;;23.15;76.37
73171;BME280;61381;50.118;19.962;2023-08-07T11:29:59;97505.66;;;23.04;75.10
73171;BME280;61381;50.118;19.962;2023-08-07T11:35:00;97503.94;;;23.82;74.01
73171;BME280;61381;50.118;19.962;2023-08-07T11:40:02;97512.13;;;23.96;73.40
73171;BME280;61381;50.118;19.962;2023-08-07T11:45:06;97520.84;;;24.44;70.07
73171;BME280;61381;50.118;19.962;2023-08-07T11:50:07;97533.63;;;24.68;67.74
73171;BME280;61381;50.118;19.962;2023-08-07T11:55:10;97522.31;;;23.89;72.73
73171;BME280;61381;50.118;19.962;2023-08-07T12:00:13;97521.25;;;23.03;74.64
73171;BME280;61381;50.118;19.962;2023-08-07T12:05:14;97527.91;;;22.70;75.02
73171;BME280;61381;50.118;19.962;2023-08-07T12:10:15;97545.56;;;20.02;85.10
73171;BME280;61381;50.118;19.962;2023-08-07T12:15:17;97550.25;;;19.74;89.41
73171;BME280;61381;50.118;19.962;2023-08-07T12:20:18;97567.97;;;18.88;91.39
73171;BME280;61381;50.118;19.962;2023-08-07T12:25:19;97575.81;;;18.11;97.68
73171;BME280;61381;50.118;19.962;2023-08-07T12:30:21;97587.47;;;18.74;97.19
73171;BME280;61381;50.118;19.962;2023-08-07T12:35:22;97585.72;;;18.62;99.45
73171;BME280;61381;50.118;19.962;2023-08-07T12:40:25;97588.03;;;19.06;99.60
73171;BME280;61381;50.118;19.962;2023-08-07T12:45:27;97580.44;;;19.69;95.96
73171;BME280;61381;50.118;19.962;2023-08-07T12:50:28;97590.56;;;19.72;93.40
73171;BME280;61381;50.118;19.962;2023-08-07T12:55:29;97591.66;;;19.91;91.84
73171;BME280;61381;50.118;19.962;2023-08-07T13:00:32;97603.38;;;21.04;90.92
73171;BME280;61381;50.118;19.962;2023-08-07T13:05:32;97606.53;;;21.06;90.88
73171;BME280;61381;50.118;19.962;2023-08-07T13:10:33;97605.44;;;21.63;88.44
73171;BME280;61381;50.118;19.962;2023-08-07T13:15:36;97617.59;;;21.76;84.65
73171;BME280;61381;50.118;19.962;2023-08-07T13:20:37;97609.88;;;21.85;82.80
73171;BME280;61381;50.118;19.962;2023-08-07T13:25:38;97620.66;;;21.67;84.96
73171;BME280;61381;50.118;19.962;2023-08-07T13:30:40;97630.09;;;21.81;84.93
73171;BME280;61381;50.118;19.962;2023-08-07T13:35:41;97634.38;;;20.89;82.56
73171;BME280;61381;50.118;19.962;2023-08-07T13:40:42;97648.06;;;20.62;85.44
73171;BME280;61381;50.118;19.962;2023-08-07T13:45:44;97657.63;;;20.79;85.42
73171;BME280;61381;50.118;19.962;2023-08-07T13:50:45;97655.34;;;20.20;84.01
73171;BME280;61381;50.118;19.962;2023-08-07T13:55:46;97662.09;;;20.64;84.25
73171;BME280;61381;50.118;19.962;2023-08-07T14:00:48;97677.00;;;20.43;85.67
73171;BME280;61381;50.118;19.962;2023-08-07T14:05:49;97682.56;;;20.51;85.09
73171;BME280;61381;50.118;19.962;2023-08-07T14:10:50;97676.16;;;20.09;86.55
73171;BME280;61381;50.118;19.962;2023-08-07T14:15:52;97685.16;;;19.63;87.91
73171;BME280;61381;50.118;19.962;2023-08-07T14:20:53;97686.00;;;20.17;86.34
73171;BME280;61381;50.118;19.962;2023-08-07T14:25:54;97675.41;;;19.35;89.93
73171;BME280;61381;50.118;19.962;2023-08-07T14:30:57;97680.28;;;19.03;89.90
73171;BME280;61381;50.118;19.962;2023-08-07T14:35:58;97672.63;;;20.05;88.37
73171;BME280;61381;50.118;19.962;2023-08-07T14:40:59;97677.97;;;19.98;88.49
73171;BME280;61381;50.118;19.962;2023-08-07T14:46:02;97685.81;;;19.53;89.87
73171;BME280;61381;50.118;19.962;2023-08-07T14:51:02;97696.13;;;19.20;91.04
73171;BME280;61381;50.118;19.962;2023-08-07T14:56:03;97695.22;;;19.59;90.45
73171;BME280;61381;50.118;19.962;2023-08-07T15:01:06;97691.97;;;19.27;91.78
73171;BME280;61381;50.118;19.962;2023-08-07T15:06:07;97702.47;;;19.28;91.56
73171;BME280;61381;50.118;19.962;2023-08-07T15:11:07;97703.25;;;19.52;91.24
73171;BME280;61381;50.118;19.962;2023-08-07T15:16:10;97700.75;;;19.20;92.58
73171;BME280;61381;50.118;19.962;2023-08-07T15:21:11;97704.38;;;19.04;92.32
73171;BME280;61381;50.118;19.962;2023-08-07T15:26:11;97706.56;;;19.41;91.49
73171;BME280;61381;50.118;19.962;2023-08-07T15:31:14;97712.84;;;19.22;92.55
73171;BME280;61381;50.118;19.962;2023-08-07T15:36:15;97714.78;;;19.45;91.48
73171;BME280;61381;50.118;19.962;2023-08-07T15:41:15;97719.72;;;18.97;93.81
73171;BME280;61381;50.118;19.962;2023-08-07T15:46:18;97716.34;;;19.03;93.37
73171;BME280;61381;50.118;19.962;2023-08-07T15:51:19;97731.88;;;19.46;91.14
73171;BME280;61381;50.118;19.962;2023-08-07T15:56:19;97733.44;;;19.23;92.48
73171;BME280;61381;50.118;19.962;2023-08-07T16:01:22;97735.53;;;19.34;91.81
73171;BME280;61381;50.118;19.962;2023-08-07T16:06:24;97750.44;;;19.20;93.83
73171;BME280;61381;50.118;19.962;2023-08-07T16:11:25;97746.50;;;19.18;93.67
73171;BME280;61381;50.118;19.962;2023-08-07T16:16:27;97752.31;;;19.39;93.15
73171;BME280;61381;50.118;19.962;2023-08-07T16:21:28;97759.97;;;19.34;92.64
73171;BME280;61381;50.118;19.962;2023-08-07T16:26:30;97754.88;;;19.52;92.50
73171;BME280;61381;50.118;19.962;2023-08-07T16:31:32;97756.25;;;19.42;92.05
73171;BME280;61381;50.118;19.962;2023-08-07T16:36:33;97764.28;;;19.58;90.11
73171;BME280;61381;50.118;19.962;2023-08-07T16:41:34;97768.44;;;19.52;89.04
73171;BME280;61381;50.118;19.962;2023-08-07T16:46:36;97772.63;;;19.46;90.30
73171;BME280;61381;50.118;19.962;2023-08-07T16:51:37;97785.22;;;19.77;89.93
73171;BME280;61381;50.118;19.962;2023-08-07T16:56:38;97777.13;;;19.38;89.25
73171;BME280;61381;50.118;19.962;2023-08-07T17:01:40;97784.56;;;19.41;89.11
73171;BME280;61381;50.118;19.962;2023-08-07T17:06:42;97787.91;;;19.11;90.56
73171;BME280;61381;50.118;19.962;2023-08-07T17:11:43;97796.25;;;19.02;91.66
73171;BME280;61381;50.118;19.962;2023-08-07T17:16:45;97802.81;;;19.01;92.39
73171;BME280;61381;50.118;19.962;2023-08-07T17:21:46;97789.56;;;18.80;93.66
73171;BME280;61381;50.118;19.962;2023-08-07T17:26:47;97803.81;;;18.58;94.33
73171;BME280;61381;50.118;19.962;2023-08-07T17:31:49;97799.69;;;18.64;94.82
73171;BME280;61381;50.118;19.962;2023-08-07T17:36:50;97818.34;;;18.49;95.82
73171;BME280;61381;50.118;19.962;2023-08-07T17:41:51;97826.53;;;18.02;97.96
73171;BME280;61381;50.118;19.962;2023-08-07T17:46:53;97820.56;;;18.28;97.69
73171;BME280;61381;50.118;19.962;2023-08-07T17:51:54;97821.81;;;17.82;99.47
73171;BME280;61381;50.118;19.962;2023-08-07T17:56:55;97815.59;;;18.14;98.86
73171;BME280;61381;50.118;19.962;2023-08-07T18:01:58;97816.59;;;18.06;99.60
73171;BME280;61381;50.118;19.962;2023-08-07T18:07:00;97827.16;;;18.11;99.58
73171;BME280;61381;50.118;19.962;2023-08-07T18:12:00;97827.56;;;17.81;100.00
73171;BME280;61381;50.118;19.962;2023-08-07T18:17:03;97841.69;;;18.03;100.00
73171;BME280;61381;50.118;19.962;2023-08-07T18:22:04;97844.25;;;17.83;100.00
73171;BME280;61381;50.118;19.962;2023-08-07T18:27:05;97843.94;;;17.56;100.00
73171;BME280;61381;50.118;19.962;2023-08-07T18:32:08;97853.50;;;17.82;100.00
73171;BME280;61381;50.118;19.962;2023-08-07T18:37:09;97861.41;;;17.87;100.00
73171;BME280;61381;50.118;19.962;2023-08-07T18:42:10;97874.72;;;17.92;100.00
73171;BME280;61381;50.118;19.962;2023-08-07T18:47:12;97877.84;;;17.94;100.00
73171;BME280;61381;50.118;19.962;2023-08-07T18:52:13;97877.88;;;18.10;100.00
73171;BME280;61381;50.118;19.962;2023-08-07T18:57:14;97881.19;;;18.35;100.00
73171;BME280;61381;50.118;19.962;2023-08-07T19:02:16;97883.91;;;18.20;100.00
73171;BME280;61381;50.118;19.962;2023-08-07T19:07:17;97877.84;;;17.94;100.00
73171;BME280;61381;50.118;19.962;2023-08-07T19:12:18;97886.63;;;18.20;100.00
73171;BME280;61381;50.118;19.962;2023-08-07T19:17:20;97897.97;;;18.25;100.00
73171;BME280;61381;50.118;19.962;2023-08-07T19:22:21;97907.59;;;18.07;100.00
73171;BME280;61381;50.118;19.962;2023-08-07T19:27:22;97904.88;;;18.07;100.00
73171;BME280;61381;50.118;19.962;2023-08-07T19:32:24;97912.38;;;17.97;100.00
73171;BME280;61381;50.118;19.962;2023-08-07T19:37:25;97919.13;;;18.04;100.00
73171;BME280;61381;50.118;19.962;2023-08-07T19:42:26;97929.09;;;17.71;100.00
73171;BME280;61381;50.118;19.962;2023-08-07T19:47:29;97940.22;;;18.10;100.00
73171;BME280;61381;50.118;19.962;2023-08-07T19:52:30;97932.63;;;17.59;100.00
73171;BME280;61381;50.118;19.962;2023-08-07T19:57:31;97944.00;;;18.06;100.00
73171;BME280;61381;50.118;19.962;2023-08-07T20:02:35;97946.44;;;17.82;100.00
73171;BME280;61381;50.118;19.962;2023-08-07T20:07:36;97954.78;;;17.90;100.00
73171;BME280;61381;50.118;19.962;2023-08-07T20:12:37;97950.13;;;18.18;100.00
73171;BME280;61381;50.118;19.962;2023-08-07T20:17:40;97960.06;;;18.14;100.00
73171;BME280;61381;50.118;19.962;2023-08-07T20:22:41;97957.94;;;17.92;100.00
73171;BME280;61381;50.118;19.962;2023-08-07T20:27:42;97965.06;;;18.12;100.00
73171;BME280;61381;50.118;19.962;2023-08-07T20:32:44;97967.44;;;17.86;100.00
73171;BME280;61381;50.118;19.962;2023-08-07T20:37:45;97964.59;;;17.82;100.00
73171;BME280;61381;50.118;19.962;2023-08-07T20:42:46;97968.59;;;17.72;100.00
73171;BME280;61381;50.118;19.962;2023-08-07T20:47:48;97971.91;;;17.53;100.00
73171;BME280;61381;50.118;19.962;2023-08-07T20:52:49;97981.50;;;17.63;100.00
73171;BME280;61381;50.118;19.962;2023-08-07T20:57:50;97975.28;;;17.62;100.00
73171;BME280;61381;50.118;19.962;2023-08-07T21:02:53;97977.31;;;17.65;100.00
73171;BME280;61381;50.118;19.962;2023-08-07T21:07:53;97985.47;;;17.53;100.00
73171;BME280;61381;50.118;19.962;2023-08-07T21:12:54;97982.59;;;17.34;100.00
73171;BME280;61381;50.118;19.962;2023-08-07T21:17:57;97984.16;;;17.75;100.00
73171;BME280;61381;50.118;19.962;2023-08-07T21:22:57;97987.53;;;17.44;100.00
73171;BME280;61381;50.118;19.962;2023-08-07T21:27:58;97992.53;;;17.70;100.00
73171;BME280;61381;50.118;19.962;2023-08-07T21:33:01;98000.28;;;17.84;100.00
73171;BME280;61381;50.118;19.962;2023-08-07T21:38:02;98007.09;;;17.65;100.00
73171;BME280;61381;50.118;19.962;2023-08-07T21:43:03;98005.31;;;17.57;100.00
73171;BME280;61381;50.118;19.962;2023-08-07T21:48:06;98003.47;;;17.74;100.00
73171;BME280;61381;50.118;19.962;2023-08-07T21:53:07;98017.38;;;17.72;100.00
73171;BME280;61381;50.118;19.962;2023-08-07T21:58:08;98025.19;;;17.61;100.00
73171;BME280;61381;50.118;19.962;2023-08-07T22:03:10;98024.53;;;17.52;100.00
73171;BME280;61381;50.118;19.962;2023-08-07T22:08:11;98030.44;;;17.70;100.00
73171;BME280;61381;50.118;19.962;2023-08-07T22:13:12;98025.78;;;17.42;100.00
73171;BME280;61381;50.118;19.962;2023-08-07T22:18:14;98032.75;;;17.56;100.00
73171;BME280;61381;50.118;19.962;2023-08-07T22:23:15;98028.47;;;17.42;100.00
73171;BME280;61381;50.118;19.962;2023-08-07T22:28:16;98033.09;;;17.54;100.00
73171;BME280;61381;50.118;19.962;2023-08-07T22:33:18;98038.25;;;17.59;100.00
73171;BME280;61381;50.118;19.962;2023-08-07T22:38:19;98041.31;;;17.58;100.00
73171;BME280;61381;50.118;19.962;2023-08-07T22:43:20;98045.63;;;17.46;100.00
73171;BME280;61381;50.118;19.962;2023-08-07T22:48:22;98048.03;;;17.11;100.00
73171;BME280;61381;50.118;19.962;2023-08-07T22:53:23;98056.25;;;17.39;100.00
73171;BME280;61381;50.118;19.962;2023-08-07T22:58:24;98051.38;;;16.83;100.00
73171;BME280;61381;50.118;19.962;2023-08-07T23:03:26;98052.44;;;17.03;100.00
73171;BME280;61381;50.118;19.962;2023-08-07T23:08:27;98062.34;;;17.11;100.00
73171;BME280;61381;50.118;19.962;2023-08-07T23:13:28;98051.16;;;17.38;100.00
73171;BME280;61381;50.118;19.962;2023-08-07T23:18:30;98057.72;;;17.37;100.00
73171;BME280;61381;50.118;19.962;2023-08-07T23:23:31;98063.94;;;17.13;100.00
73171;BME280;61381;50.118;19.962;2023-08-07T23:28:32;98056.84;;;17.08;100.00
73171;BME280;61381;50.118;19.962;2023-08-07T23:33:34;98063.50;;;17.23;100.00
73171;BME280;61381;50.118;19.962;2023-08-07T23:38:35;98068.19;;;17.01;100.00
73171;BME280;61381;50.118;19.962;2023-08-07T23:43:36;98073.59;;;16.89;100.00
73171;BME280;61381;50.118;19.962;2023-08-07T23:48:38;98081.28;;;17.11;100.00
73171;BME280;61381;50.118;19.962;2023-08-07T23:53:39;98087.50;;;17.12;100.00
73171;BME280;61381;50.118;19.962;2023-08-07T23:58:40;98087.38;;;17.33;100.00
